sensor_id;sensor_type;location;lat;lon;timestamp;pressure;altitude;pressure_sealevel;temperature;humidity
75923;BME280;64602;47.542;19.090;2023-11-19T00:04:29;100939.06;;;2.49;81.37
75923;BME280;64602;47.542;19.090;2023-11-19T00:09:33;100960.41;;;2.58;81.40
75923;BME280;64602;47.542;19.090;2023-11-19T00:14:35;100930.84;;;2.51;81.05
75923;BME280;64602;47.542;19.090;2023-11-19T00:19:37;100933.31;;;2.52;80.89
75923;BME280;64602;47.542;19.090;2023-11-19T00:24:39;100927.25;;;2.44;81.11
75923;BME280;64602;47.542;19.090;2023-11-19T00:29:41;100931.84;;;2.50;81.23
75923;BME280;64602;47.542;19.090;2023-11-19T00:34:44;100947.47;;;2.46;81.28
75923;BME280;64602;47.542;19.090;2023-11-19T00:39:47;100940.72;;;2.35;81.57
75923;BME280;64602;47.542;19.090;2023-11-19T00:44:49;100944.63;;;2.48;81.62
75923;BME280;64602;47.542;19.090;2023-11-19T00:49:52;100936.91;;;2.45;81.93
75923;BME280;64602;47.542;19.090;2023-11-19T00:54:54;100934.06;;;2.46;81.28
75923;BME280;64602;47.542;19.090;2023-11-19T00:59:56;100936.84;;;2.53;81.05
75923;BME280;64602;47.542;19.090;2023-11-19T01:04:59;100921.41;;;2.55;81.46
75923;BME280;64602;47.542;19.090;2023-11-19T01:10:01;100902.47;;;2.56;81.45
75923;BME280;64602;47.542;19.090;2023-11-19T01:15:05;100919.75;;;2.54;81.71
75923;BME280;64602;47.542;19.090;2023-11-19T01:20:08;100938.59;;;2.46;82.02
75923;BME280;64602;47.542;19.090;2023-11-19T01:25:13;100924.72;;;2.27;82.39
75923;BME280;64602;47.542;19.090;2023-11-19T01:30:16;100921.87;;;2.44;82.60
75923;BME280;64602;47.542;19.090;2023-11-19T01:35:18;100921.41;;;2.40;82.73
75923;BME280;64602;47.542;19.090;2023-11-19T01:40:21;100934.72;;;2.33;82.77
75923;BME280;64602;47.542;19.090;2023-11-19T01:45:30;100916.25;;;2.24;82.98
75923;BME280;64602;47.542;19.090;2023-11-19T01:50:33;100921.78;;;2.22;83.26
75923;BME280;64602;47.542;19.090;2023-11-19T01:55:35;100915.97;;;2.33;83.15
75923;BME280;64602;47.542;19.090;2023-11-19T02:00:37;100896.03;;;2.21;83.35
75923;BME280;64602;47.542;19.090;2023-11-19T02:05:40;100879.97;;;2.06;83.91
75923;BME280;64602;47.542;19.090;2023-11-19T02:10:42;100879.75;;;2.23;83.69
75923;BME280;64602;47.542;19.090;2023-11-19T02:15:45;100880.03;;;2.13;83.99
75923;BME280;64602;47.542;19.090;2023-11-19T02:20:50;100875.22;;;2.08;84.13
75923;BME280;64602;47.542;19.090;2023-11-19T02:26:12;100886.88;;;2.16;84.16
75923;BME280;64602;47.542;19.090;2023-11-19T02:31:16;100871.19;;;1.98;84.81
75923;BME280;64602;47.542;19.090;2023-11-19T02:36:18;100866.75;;;2.05;84.81
75923;BME280;64602;47.542;19.090;2023-11-19T02:41:20;100878.44;;;1.89;84.83
75923;BME280;64602;47.542;19.090;2023-11-19T02:46:22;100856.38;;;1.72;85.64
75923;BME280;64602;47.542;19.090;2023-11-19T02:51:24;100857.50;;;1.78;85.94
75923;BME280;64602;47.542;19.090;2023-11-19T02:56:27;100836.72;;;1.65;86.13
75923;BME280;64602;47.542;19.090;2023-11-19T03:01:31;100841.06;;;1.66;86.38
75923;BME280;64602;47.542;19.090;2023-11-19T03:06:35;100846.03;;;1.69;86.48
75923;BME280;64602;47.542;19.090;2023-11-19T03:11:38;100844.84;;;1.71;86.63
75923;BME280;64602;47.542;19.090;2023-11-19T03:16:40;100838.66;;;1.71;86.58
75923;BME280;64602;47.542;19.090;2023-11-19T03:21:42;100814.69;;;1.63;86.56
75923;BME280;64602;47.542;19.090;2023-11-19T03:26:49;100824.91;;;1.74;86.65
75923;BME280;64602;47.542;19.090;2023-11-19T03:31:52;100811.34;;;1.61;86.68
75923;BME280;64602;47.542;19.090;2023-11-19T03:36:54;100805.47;;;1.65;86.41
75923;BME280;64602;47.542;19.090;2023-11-19T03:41:57;100833.22;;;1.79;86.57
75923;BME280;64602;47.542;19.090;2023-11-19T03:46:59;100782.31;;;1.87;86.18
75923;BME280;64602;47.542;19.090;2023-11-19T03:52:02;100785.31;;;1.84;86.16
75923;BME280;64602;47.542;19.090;2023-11-19T03:57:04;100763.38;;;1.74;86.28
75923;BME280;64602;47.542;19.090;2023-11-19T04:02:07;100765.41;;;1.72;86.73
75923;BME280;64602;47.542;19.090;2023-11-19T04:07:09;100758.56;;;1.84;86.52
75923;BME280;64602;47.542;19.090;2023-11-19T04:12:11;100741.78;;;1.76;86.51
75923;BME280;64602;47.542;19.090;2023-11-19T04:17:13;100744.19;;;1.85;86.46
75923;BME280;64602;47.542;19.090;2023-11-19T04:22:15;100742.88;;;1.96;86.46
75923;BME280;64602;47.542;19.090;2023-11-19T04:27:18;100753.97;;;1.93;86.59
75923;BME280;64602;47.542;19.090;2023-11-19T04:32:20;100728.56;;;1.89;86.55
75923;BME280;64602;47.542;19.090;2023-11-19T04:37:23;100733.94;;;1.89;86.67
75923;BME280;64602;47.542;19.090;2023-11-19T04:42:25;100726.38;;;1.78;87.07
75923;BME280;64602;47.542;19.090;2023-11-19T04:47:27;100733.13;;;1.59;87.28
75923;BME280;64602;47.542;19.090;2023-11-19T04:52:29;100767.72;;;1.60;87.36
75923;BME280;64602;47.542;19.090;2023-11-19T04:57:31;100761.63;;;1.66;87.67
75923;BME280;64602;47.542;19.090;2023-11-19T05:02:34;100780.19;;;1.83;87.29
75923;BME280;64602;47.542;19.090;2023-11-19T05:07:36;100770.19;;;1.77;86.70
75923;BME280;64602;47.542;19.090;2023-11-19T05:12:40;100749.72;;;1.69;87.22
75923;BME280;64602;47.542;19.090;2023-11-19T05:17:43;100764.00;;;1.91;87.37
75923;BME280;64602;47.542;19.090;2023-11-19T05:22:45;100766.06;;;1.74;87.43
75923;BME280;64602;47.542;19.090;2023-11-19T05:27:48;100758.84;;;1.75;87.60
75923;BME280;64602;47.542;19.090;2023-11-19T05:32:50;100761.81;;;1.95;87.61
75923;BME280;64602;47.542;19.090;2023-11-19T05:37:52;100757.75;;;1.84;87.79
75923;BME280;64602;47.542;19.090;2023-11-19T05:42:54;100756.00;;;1.76;88.45
75923;BME280;64602;47.542;19.090;2023-11-19T05:47:56;100749.63;;;1.62;88.74
75923;BME280;64602;47.542;19.090;2023-11-19T05:52:58;100751.84;;;1.59;88.37
75923;BME280;64602;47.542;19.090;2023-11-19T05:58:01;100744.66;;;1.44;88.89
75923;BME280;64602;47.542;19.090;2023-11-19T06:03:03;100753.44;;;1.53;88.68
75923;BME280;64602;47.542;19.090;2023-11-19T06:08:06;100748.81;;;1.47;88.65
75923;BME280;64602;47.542;19.090;2023-11-19T06:13:09;100779.53;;;1.51;88.41
75923;BME280;64602;47.542;19.090;2023-11-19T06:18:13;100747.59;;;1.49;88.77
75923;BME280;64602;47.542;19.090;2023-11-19T06:23:16;100746.78;;;1.64;88.67
75923;BME280;64602;47.542;19.090;2023-11-19T06:28:18;100736.06;;;1.79;88.08
75923;BME280;64602;47.542;19.090;2023-11-19T06:33:21;100710.69;;;1.60;88.03
75923;BME280;64602;47.542;19.090;2023-11-19T06:38:24;100722.53;;;1.65;88.24
75923;BME280;64602;47.542;19.090;2023-11-19T06:43:26;100718.91;;;1.88;87.54
75923;BME280;64602;47.542;19.090;2023-11-19T06:48:44;100715.37;;;2.02;86.98
75923;BME280;64602;47.542;19.090;2023-11-19T06:53:46;100712.78;;;1.94;86.94
75923;BME280;64602;47.542;19.090;2023-11-19T06:58:49;100696.00;;;1.85;87.30
75923;BME280;64602;47.542;19.090;2023-11-19T07:03:51;100703.53;;;2.11;86.84
75923;BME280;64602;47.542;19.090;2023-11-19T07:08:53;100692.72;;;2.41;86.20
75923;BME280;64602;47.542;19.090;2023-11-19T07:13:56;100694.31;;;2.35;86.03
75923;BME280;64602;47.542;19.090;2023-11-19T07:18:58;100695.75;;;2.17;86.91
75923;BME280;64602;47.542;19.090;2023-11-19T07:24:02;100713.25;;;2.34;86.72
75923;BME280;64602;47.542;19.090;2023-11-19T07:29:04;100712.75;;;2.45;86.51
75923;BME280;64602;47.542;19.090;2023-11-19T07:34:10;100709.16;;;2.60;85.92
75923;BME280;64602;47.542;19.090;2023-11-19T07:39:13;100721.63;;;2.67;85.28
75923;BME280;64602;47.542;19.090;2023-11-19T07:44:15;100696.03;;;2.65;85.25
75923;BME280;64602;47.542;19.090;2023-11-19T07:49:18;100728.81;;;2.67;85.59
75923;BME280;64602;47.542;19.090;2023-11-19T07:54:20;100736.41;;;2.63;85.66
75923;BME280;64602;47.542;19.090;2023-11-19T07:59:23;100713.25;;;2.77;85.66
75923;BME280;64602;47.542;19.090;2023-11-19T08:04:25;100709.91;;;2.96;84.89
75923;BME280;64602;47.542;19.090;2023-11-19T08:09:27;100678.34;;;2.70;84.47
75923;BME280;64602;47.542;19.090;2023-11-19T08:14:30;100682.03;;;2.69;84.80
75923;BME280;64602;47.542;19.090;2023-11-19T08:19:32;100645.81;;;2.52;84.88
75923;BME280;64602;47.542;19.090;2023-11-19T08:24:35;100658.47;;;2.58;84.93
75923;BME280;64602;47.542;19.090;2023-11-19T08:29:37;100616.72;;;2.70;84.57
75923;BME280;64602;47.542;19.090;2023-11-19T08:34:39;100635.28;;;2.72;84.01
75923;BME280;64602;47.542;19.090;2023-11-19T08:39:41;100643.19;;;2.80;83.37
75923;BME280;64602;47.542;19.090;2023-11-19T08:44:49;100650.25;;;2.88;82.70
75923;BME280;64602;47.542;19.090;2023-11-19T08:49:52;100632.75;;;2.92;82.97
75923;BME280;64602;47.542;19.090;2023-11-19T08:54:58;100627.47;;;3.05;82.37
75923;BME280;64602;47.542;19.090;2023-11-19T09:00:00;100654.50;;;3.10;82.30
75923;BME280;64602;47.542;19.090;2023-11-19T09:05:03;100631.00;;;3.12;82.98
75923;BME280;64602;47.542;19.090;2023-11-19T09:10:06;100645.81;;;3.02;82.50
75923;BME280;64602;47.542;19.090;2023-11-19T09:15:10;100650.75;;;3.33;82.85
75923;BME280;64602;47.542;19.090;2023-11-19T09:20:12;100640.87;;;3.05;82.49
75923;BME280;64602;47.542;19.090;2023-11-19T09:25:17;100641.34;;;3.15;82.30
75923;BME280;64602;47.542;19.090;2023-11-19T09:30:19;100647.84;;;3.34;82.14
75923;BME280;64602;47.542;19.090;2023-11-19T09:35:22;100653.22;;;3.34;81.87
75923;BME280;64602;47.542;19.090;2023-11-19T09:40:24;100636.87;;;3.29;81.59
75923;BME280;64602;47.542;19.090;2023-11-19T09:45:28;100640.63;;;3.28;81.80
75923;BME280;64602;47.542;19.090;2023-11-19T09:50:31;100625.50;;;3.20;81.81
75923;BME280;64602;47.542;19.090;2023-11-19T09:55:33;100617.88;;;3.24;82.11
75923;BME280;64602;47.542;19.090;2023-11-19T10:00:35;100608.78;;;3.18;82.42
75923;BME280;64602;47.542;19.090;2023-11-19T10:05:37;100590.06;;;3.32;82.20
75923;BME280;64602;47.542;19.090;2023-11-19T10:10:43;100588.88;;;3.41;82.05
75923;BME280;64602;47.542;19.090;2023-11-19T10:15:45;100583.66;;;3.26;82.38
75923;BME280;64602;47.542;19.090;2023-11-19T10:20:49;100553.59;;;3.44;81.91
75923;BME280;64602;47.542;19.090;2023-11-19T10:25:53;100556.72;;;3.54;81.70
75923;BME280;64602;47.542;19.090;2023-11-19T10:30:56;100567.72;;;3.73;81.14
75923;BME280;64602;47.542;19.090;2023-11-19T10:35:58;100566.88;;;3.66;81.26
75923;BME280;64602;47.542;19.090;2023-11-19T10:41:04;100562.59;;;3.91;81.08
75923;BME280;64602;47.542;19.090;2023-11-19T10:46:11;100568.38;;;3.95;80.45
75923;BME280;64602;47.542;19.090;2023-11-19T10:51:18;100572.94;;;4.07;80.07
75923;BME280;64602;47.542;19.090;2023-11-19T10:56:25;100557.03;;;4.06;80.03
75923;BME280;64602;47.542;19.090;2023-11-19T11:01:39;100542.34;;;3.95;80.06
75923;BME280;64602;47.542;19.090;2023-11-19T11:06:46;100523.34;;;3.90;80.00
75923;BME280;64602;47.542;19.090;2023-11-19T11:11:49;100519.44;;;3.99;80.10
75923;BME280;64602;47.542;19.090;2023-11-19T11:16:53;100496.06;;;3.73;80.50
75923;BME280;64602;47.542;19.090;2023-11-19T11:21:55;100491.34;;;3.89;80.25
75923;BME280;64602;47.542;19.090;2023-11-19T11:27:49;100489.91;;;3.99;80.29
75923;BME280;64602;47.542;19.090;2023-11-19T11:33:04;100502.09;;;4.02;80.05
75923;BME280;64602;47.542;19.090;2023-11-19T11:38:08;100489.28;;;3.97;80.41
75923;BME280;64602;47.542;19.090;2023-11-19T11:43:43;100489.88;;;3.93;81.18
75923;BME280;64602;47.542;19.090;2023-11-19T11:48:48;100487.63;;;4.16;80.49
75923;BME280;64602;47.542;19.090;2023-11-19T11:53:51;100470.25;;;4.25;80.09
75923;BME280;64602;47.542;19.090;2023-11-19T11:58:54;100465.09;;;4.24;79.80
75923;BME280;64602;47.542;19.090;2023-11-19T12:03:57;100469.41;;;4.45;79.42
75923;BME280;64602;47.542;19.090;2023-11-19T12:09:00;100446.22;;;4.64;78.64
75923;BME280;64602;47.542;19.090;2023-11-19T12:14:02;100424.28;;;4.60;78.33
75923;BME280;64602;47.542;19.090;2023-11-19T12:19:05;100431.25;;;4.88;77.78
75923;BME280;64602;47.542;19.090;2023-11-19T12:24:10;100421.41;;;5.07;76.95
75923;BME280;64602;47.542;19.090;2023-11-19T12:29:13;100409.19;;;5.11;76.89
75923;BME280;64602;47.542;19.090;2023-11-19T12:34:15;100390.56;;;5.09;76.49
75923;BME280;64602;47.542;19.090;2023-11-19T12:39:17;100394.97;;;4.97;77.16
75923;BME280;64602;47.542;19.090;2023-11-19T12:44:20;100390.84;;;4.95;77.61
75923;BME280;64602;47.542;19.090;2023-11-19T12:49:22;100365.25;;;4.85;78.26
75923;BME280;64602;47.542;19.090;2023-11-19T12:54:34;100366.56;;;4.76;78.64
75923;BME280;64602;47.542;19.090;2023-11-19T12:59:37;100355.47;;;4.59;78.29
75923;BME280;64602;47.542;19.090;2023-11-19T13:04:39;100336.06;;;4.50;78.71
75923;BME280;64602;47.542;19.090;2023-11-19T13:09:41;100347.16;;;4.61;79.42
75923;BME280;64602;47.542;19.090;2023-11-19T13:14:44;100351.50;;;4.68;79.86
75923;BME280;64602;47.542;19.090;2023-11-19T13:19:48;100348.38;;;4.71;80.34
75923;BME280;64602;47.542;19.090;2023-11-19T13:24:52;100346.56;;;4.59;80.35
75923;BME280;64602;47.542;19.090;2023-11-19T13:29:55;100323.06;;;4.47;81.08
75923;BME280;64602;47.542;19.090;2023-11-19T13:34:57;100327.72;;;4.65;81.16
75923;BME280;64602;47.542;19.090;2023-11-19T13:39:59;100338.63;;;4.77;81.29
75923;BME280;64602;47.542;19.090;2023-11-19T13:45:01;100332.25;;;4.71;82.57
75923;BME280;64602;47.542;19.090;2023-11-19T13:50:05;100337.34;;;4.80;82.34
75923;BME280;64602;47.542;19.090;2023-11-19T13:55:09;100332.63;;;4.75;81.84
75923;BME280;64602;47.542;19.090;2023-11-19T14:00:12;100313.16;;;4.80;81.00
75923;BME280;64602;47.542;19.090;2023-11-19T14:05:16;100290.38;;;4.82;81.13
75923;BME280;64602;47.542;19.090;2023-11-19T14:10:39;100316.44;;;4.88;80.45
75923;BME280;64602;47.542;19.090;2023-11-19T14:15:44;100320.09;;;4.94;80.60
75923;BME280;64602;47.542;19.090;2023-11-19T14:20:50;100324.25;;;4.90;80.38
75923;BME280;64602;47.542;19.090;2023-11-19T14:25:52;100320.94;;;4.95;80.72
75923;BME280;64602;47.542;19.090;2023-11-19T14:30:55;100317.25;;;4.89;80.32
75923;BME280;64602;47.542;19.090;2023-11-19T14:35:59;100323.69;;;4.88;80.63
75923;BME280;64602;47.542;19.090;2023-11-19T14:41:01;100317.84;;;4.91;80.78
75923;BME280;64602;47.542;19.090;2023-11-19T14:46:03;100312.69;;;4.89;81.71
75923;BME280;64602;47.542;19.090;2023-11-19T14:51:06;100292.25;;;4.82;82.00
75923;BME280;64602;47.542;19.090;2023-11-19T14:56:11;100322.81;;;4.87;82.15
75923;BME280;64602;47.542;19.090;2023-11-19T15:01:15;100324.25;;;4.90;82.66
75923;BME280;64602;47.542;19.090;2023-11-19T15:06:17;100332.75;;;4.87;82.99
75923;BME280;64602;47.542;19.090;2023-11-19T15:11:19;100306.53;;;4.82;83.99
75923;BME280;64602;47.542;19.090;2023-11-19T15:16:22;100324.69;;;4.87;84.70
75923;BME280;64602;47.542;19.090;2023-11-19T15:21:35;100318.19;;;4.69;85.73
75923;BME280;64602;47.542;19.090;2023-11-19T15:26:37;100320.66;;;4.71;86.91
75923;BME280;64602;47.542;19.090;2023-11-19T15:31:40;100316.94;;;4.72;87.34
75923;BME280;64602;47.542;19.090;2023-11-19T15:36:42;100337.16;;;4.81;87.52
75923;BME280;64602;47.542;19.090;2023-11-19T15:41:44;100314.87;;;4.67;87.81
75923;BME280;64602;47.542;19.090;2023-11-19T15:46:47;100299.94;;;4.78;88.11
75923;BME280;64602;47.542;19.090;2023-11-19T15:51:49;100305.34;;;4.71;88.24
75923;BME280;64602;47.542;19.090;2023-11-19T15:56:52;100300.81;;;4.72;88.77
75923;BME280;64602;47.542;19.090;2023-11-19T16:01:54;100302.22;;;4.75;88.59
75923;BME280;64602;47.542;19.090;2023-11-19T16:06:56;100295.25;;;4.67;89.23
75923;BME280;64602;47.542;19.090;2023-11-19T16:11:59;100287.81;;;4.69;88.86
75923;BME280;64602;47.542;19.090;2023-11-19T16:17:01;100288.59;;;4.76;88.62
75923;BME280;64602;47.542;19.090;2023-11-19T16:22:03;100298.41;;;4.89;88.48
75923;BME280;64602;47.542;19.090;2023-11-19T16:27:12;100295.13;;;4.87;88.04
75923;BME280;64602;47.542;19.090;2023-11-19T16:32:17;100299.69;;;4.86;88.04
75923;BME280;64602;47.542;19.090;2023-11-19T16:37:19;100261.88;;;4.81;88.43
75923;BME280;64602;47.542;19.090;2023-11-19T16:42:22;100246.72;;;4.87;88.83
75923;BME280;64602;47.542;19.090;2023-11-19T16:47:25;100264.44;;;4.95;88.92
75923;BME280;64602;47.542;19.090;2023-11-19T16:52:27;100283.28;;;4.95;88.68
75923;BME280;64602;47.542;19.090;2023-11-19T16:57:30;100274.59;;;4.92;88.82
75923;BME280;64602;47.542;19.090;2023-11-19T17:02:33;100281.41;;;4.95;89.38
75923;BME280;64602;47.542;19.090;2023-11-19T17:07:52;100266.28;;;5.01;90.55
75923;BME280;64602;47.542;19.090;2023-11-19T17:12:55;100291.63;;;5.11;90.38
75923;BME280;64602;47.542;19.090;2023-11-19T17:17:57;100268.69;;;5.09;90.07
75923;BME280;64602;47.542;19.090;2023-11-19T17:22:59;100261.19;;;5.18;90.56
75923;BME280;64602;47.542;19.090;2023-11-19T17:28:02;100276.72;;;5.16;90.77
75923;BME280;64602;47.542;19.090;2023-11-19T17:33:09;100254.44;;;5.08;90.51
75923;BME280;64602;47.542;19.090;2023-11-19T17:38:11;100279.44;;;5.09;91.28
75923;BME280;64602;47.542;19.090;2023-11-19T17:43:16;100259.97;;;5.13;91.80
75923;BME280;64602;47.542;19.090;2023-11-19T17:48:20;100230.37;;;5.13;91.70
75923;BME280;64602;47.542;19.090;2023-11-19T17:53:23;100216.28;;;4.93;93.23
75923;BME280;64602;47.542;19.090;2023-11-19T17:58:25;100177.25;;;4.84;93.18
75923;BME280;64602;47.542;19.090;2023-11-19T18:03:28;100202.75;;;5.00;93.10
75923;BME280;64602;47.542;19.090;2023-11-19T18:08:30;100185.34;;;5.02;93.56
75923;BME280;64602;47.542;19.090;2023-11-19T18:13:32;100191.59;;;5.03;95.57
75923;BME280;64602;47.542;19.090;2023-11-19T18:18:35;100211.34;;;5.15;95.38
75923;BME280;64602;47.542;19.090;2023-11-19T18:23:37;100204.91;;;5.16;95.47
75923;BME280;64602;47.542;19.090;2023-11-19T18:28:40;100192.97;;;5.30;94.86
75923;BME280;64602;47.542;19.090;2023-11-19T18:33:43;100211.34;;;5.33;94.85
75923;BME280;64602;47.542;19.090;2023-11-19T18:38:45;100235.22;;;5.30;95.30
75923;BME280;64602;47.542;19.090;2023-11-19T18:43:47;100196.47;;;5.31;94.59
75923;BME280;64602;47.542;19.090;2023-11-19T18:48:50;100189.53;;;5.23;94.53
75923;BME280;64602;47.542;19.090;2023-11-19T18:53:54;100211.66;;;5.25;94.50
75923;BME280;64602;47.542;19.090;2023-11-19T18:58:58;100229.00;;;5.29;95.10
75923;BME280;64602;47.542;19.090;2023-11-19T19:04:01;100214.66;;;5.35;95.50
75923;BME280;64602;47.542;19.090;2023-11-19T19:09:04;100195.38;;;5.39;94.92
75923;BME280;64602;47.542;19.090;2023-11-19T19:14:06;100198.91;;;5.39;94.76
75923;BME280;64602;47.542;19.090;2023-11-19T19:19:09;100177.94;;;5.41;94.10
75923;BME280;64602;47.542;19.090;2023-11-19T19:24:11;100137.44;;;5.36;94.71
75923;BME280;64602;47.542;19.090;2023-11-19T19:29:16;100158.44;;;5.27;93.86
75923;BME280;64602;47.542;19.090;2023-11-19T19:34:18;100123.53;;;5.21;94.37
75923;BME280;64602;47.542;19.090;2023-11-19T19:39:21;100125.00;;;5.17;94.37
75923;BME280;64602;47.542;19.090;2023-11-19T19:44:24;100128.16;;;5.13;94.56
75923;BME280;64602;47.542;19.090;2023-11-19T19:49:28;100125.31;;;5.08;93.90
75923;BME280;64602;47.542;19.090;2023-11-19T19:54:31;100137.59;;;5.23;93.42
75923;BME280;64602;47.542;19.090;2023-11-19T19:59:36;100121.94;;;5.31;93.29
75923;BME280;64602;47.542;19.090;2023-11-19T20:04:38;100102.16;;;5.07;94.97
75923;BME280;64602;47.542;19.090;2023-11-19T20:09:59;100123.91;;;5.06;95.03
75923;BME280;64602;47.542;19.090;2023-11-19T20:15:01;100134.09;;;5.22;93.74
75923;BME280;64602;47.542;19.090;2023-11-19T20:20:04;100151.75;;;5.11;94.64
75923;BME280;64602;47.542;19.090;2023-11-19T20:25:08;100133.94;;;5.17;95.51
75923;BME280;64602;47.542;19.090;2023-11-19T20:30:12;100171.12;;;5.20;95.66
75923;BME280;64602;47.542;19.090;2023-11-19T20:35:14;100178.41;;;5.20;95.90
75923;BME280;64602;47.542;19.090;2023-11-19T20:40:17;100183.22;;;5.11;96.14
75923;BME280;64602;47.542;19.090;2023-11-19T20:45:19;100194.59;;;5.13;96.37
75923;BME280;64602;47.542;19.090;2023-11-19T20:50:24;100167.25;;;5.16;96.57
75923;BME280;64602;47.542;19.090;2023-11-19T20:55:28;100174.38;;;5.04;96.51
75923;BME280;64602;47.542;19.090;2023-11-19T21:00:33;100177.53;;;5.01;96.52
75923;BME280;64602;47.542;19.090;2023-11-19T21:05:36;100161.72;;;4.86;97.12
75923;BME280;64602;47.542;19.090;2023-11-19T21:10:39;100173.81;;;4.77;97.42
75923;BME280;64602;47.542;19.090;2023-11-19T21:15:42;100178.72;;;4.80;97.00
75923;BME280;64602;47.542;19.090;2023-11-19T21:20:57;100186.09;;;4.91;97.23
75923;BME280;64602;47.542;19.090;2023-11-19T21:26:00;100183.41;;;4.91;96.75
75923;BME280;64602;47.542;19.090;2023-11-19T21:31:03;100176.37;;;4.90;97.19
75923;BME280;64602;47.542;19.090;2023-11-19T21:36:06;100160.22;;;4.90;97.44
75923;BME280;64602;47.542;19.090;2023-11-19T21:41:09;100163.63;;;5.04;97.64
75923;BME280;64602;47.542;19.090;2023-11-19T21:46:11;100166.63;;;4.96;97.61
75923;BME280;64602;47.542;19.090;2023-11-19T21:51:13;100146.41;;;4.86;97.96
75923;BME280;64602;47.542;19.090;2023-11-19T21:56:15;100140.38;;;4.91;98.25
75923;BME280;64602;47.542;19.090;2023-11-19T22:01:19;100160.69;;;4.87;98.42
75923;BME280;64602;47.542;19.090;2023-11-19T22:06:21;100141.19;;;4.91;98.80
75923;BME280;64602;47.542;19.090;2023-11-19T22:11:23;100147.12;;;4.75;98.87
75923;BME280;64602;47.542;19.090;2023-11-19T22:16:27;100156.34;;;4.86;98.98
75923;BME280;64602;47.542;19.090;2023-11-19T22:21:29;100171.22;;;4.88;99.88
75923;BME280;64602;47.542;19.090;2023-11-19T22:26:31;100186.09;;;4.91;100.00
75923;BME280;64602;47.542;19.090;2023-11-19T22:31:34;100127.53;;;4.93;100.00
75923;BME280;64602;47.542;19.090;2023-11-19T22:36:37;100090.09;;;4.91;100.00
75923;BME280;64602;47.542;19.090;2023-11-19T22:41:39;100060.69;;;4.78;100.00
75923;BME280;64602;47.542;19.090;2023-11-19T22:46:42;100096.28;;;4.74;100.00
75923;BME280;64602;47.542;19.090;2023-11-19T22:51:45;100110.22;;;4.64;100.00
75923;BME280;64602;47.542;19.090;2023-11-19T22:56:47;100129.75;;;4.53;100.00
75923;BME280;64602;47.542;19.090;2023-11-19T23:01:49;100101.66;;;4.48;100.00
75923;BME280;64602;47.542;19.090;2023-11-19T23:06:51;100090.91;;;4.48;100.00
75923;BME280;64602;47.542;19.090;2023-11-19T23:11:53;100119.75;;;4.60;100.00
75923;BME280;64602;47.542;19.090;2023-11-19T23:16:55;100137.03;;;4.70;100.00
75923;BME280;64602;47.542;19.090;2023-11-19T23:21:58;100144.44;;;4.75;100.00
75923;BME280;64602;47.542;19.090;2023-11-19T23:27:00;100140.94;;;4.75;100.00
75923;BME280;64602;47.542;19.090;2023-11-19T23:32:03;100134.12;;;4.72;100.00
75923;BME280;64602;47.542;19.090;2023-11-19T23:37:06;100114.19;;;4.61;100.00
75923;BME280;64602;47.542;19.090;2023-11-19T23:42:09;100117.03;;;4.66;100.00
75923;BME280;64602;47.542;19.090;2023-11-19T23:47:11;100110.16;;;4.70;100.00
75923;BME280;64602;47.542;19.090;2023-11-19T23:52:13;100100.94;;;4.60;100.00
75923;BME280;64602;47.542;19.090;2023-11-19T23:57:15;100100.12;;;4.59;100.00
